createdAt,value
2018-09-25T00:00:26.713Z,63.48
2018-09-25T00:03:01.246Z,63.45
2018-09-25T00:05:34.744Z,63.58
2018-09-25T00:08:08.272Z,63.53
2018-09-25T00:10:41.896Z,63.59
2018-09-25T00:13:15.619Z,64.07
2018-09-25T00:15:49.121Z,64.46
2018-09-25T00:18:22.685Z,64.56
2018-09-25T00:20:56.365Z,64.69
2018-09-25T00:23:30.133Z,65.08
2018-09-25T00:26:03.686Z,65.15
2018-09-25T00:28:37.198Z,65.41
2018-09-25T00:31:10.783Z,65.37
2018-09-25T00:33:44.525Z,65.98
2018-09-25T00:36:18.116Z,65.82
2018-09-25T00:38:51.653Z,65.74
2018-09-25T00:41:25.162Z,65.14
2018-09-25T00:43:58.669Z,65.55
2018-09-25T00:46:32.215Z,67.04
2018-09-25T00:49:05.789Z,66.88
2018-09-25T00:51:39.270Z,66.99
2018-09-25T00:54:12.741Z,67.05
2018-09-25T00:56:46.292Z,67.13
2018-09-25T00:59:20.003Z,67.05
2018-09-25T01:01:53.629Z,66.77
2018-09-25T01:04:27.157Z,66.68
2018-09-25T01:07:00.705Z,66.54
2018-09-25T01:09:34.244Z,66.59
2018-09-25T01:12:07.921Z,66.32
2018-09-25T01:14:41.449Z,66.51
2018-09-25T01:17:14.921Z,66.43
2018-09-25T01:19:48.597Z,65.92
2018-09-25T01:22:22.122Z,65.98
2018-09-25T01:24:55.657Z,65.85
2018-09-25T01:27:29.234Z,65.56
2018-09-25T01:30:02.740Z,66.00
2018-09-25T01:32:36.401Z,65.46
2018-09-25T01:35:09.954Z,65.57
2018-09-25T01:37:43.664Z,65.59
2018-09-25T01:40:17.365Z,65.40
2018-09-25T01:42:50.818Z,65.23
2018-09-25T01:45:24.537Z,64.93
2018-09-25T01:47:58.237Z,64.57
2018-09-25T01:50:31.939Z,64.72
2018-09-25T01:53:05.645Z,64.95
2018-09-25T01:55:39.252Z,64.37
2018-09-25T01:58:12.901Z,64.76
2018-09-25T02:00:46.369Z,65.10
2018-09-25T02:03:19.868Z,64.73
2018-09-25T02:05:53.621Z,64.74
2018-09-25T02:08:27.145Z,64.99
2018-09-25T02:11:00.825Z,64.97
2018-09-25T02:13:34.448Z,65.27
2018-09-25T02:16:07.987Z,65.42
2018-09-25T02:18:41.669Z,65.41
2018-09-25T02:21:15.424Z,65.59
2018-09-25T02:23:48.997Z,65.35
2018-09-25T02:26:22.578Z,65.30
2018-09-25T02:28:56.215Z,65.06
2018-09-25T02:31:29.754Z,65.36
2018-09-25T02:34:03.344Z,64.38
2018-09-25T02:36:36.958Z,64.45
2018-09-25T02:39:14.429Z,64.24
2018-09-25T02:41:48.477Z,64.25
2018-09-25T02:44:22.097Z,64.23
2018-09-25T02:46:55.581Z,64.23
2018-09-25T02:49:29.178Z,63.98
2018-09-25T02:52:02.714Z,64.18
2018-09-25T02:54:36.230Z,64.20
2018-09-25T02:57:09.849Z,63.82
2018-09-25T02:59:43.345Z,63.98
2018-09-25T03:02:16.837Z,63.90
2018-09-25T03:04:50.402Z,64.01
2018-09-25T03:07:24.082Z,63.91
2018-09-25T03:09:57.589Z,64.58
2018-09-25T03:12:31.168Z,63.97
2018-09-25T03:15:04.670Z,64.17
2018-09-25T03:17:38.169Z,63.80
2018-09-25T03:20:11.621Z,63.65
2018-09-25T03:22:45.409Z,63.66
2018-09-25T03:25:19.006Z,63.23
2018-09-25T03:27:52.590Z,63.53
2018-09-25T03:30:26.164Z,63.34
2018-09-25T03:32:59.819Z,63.68
2018-09-25T03:35:33.537Z,63.40
2018-09-25T03:38:07.114Z,62.85
2018-09-25T03:40:40.601Z,63.43
2018-09-25T03:43:14.088Z,62.94
2018-09-25T03:45:47.537Z,63.56
2018-09-25T03:48:21.117Z,63.68
2018-09-25T03:50:54.766Z,63.99
2018-09-25T03:53:28.446Z,63.32
2018-09-25T03:56:02.036Z,63.64
2018-09-25T03:58:35.651Z,64.34
2018-09-25T04:01:09.402Z,64.79
2018-09-25T04:03:43.197Z,65.39
2018-09-25T04:06:16.862Z,64.90
2018-09-25T04:08:50.409Z,64.65
2018-09-25T04:11:24.182Z,64.96
2018-09-25T04:13:57.925Z,65.00
2018-09-25T04:16:31.452Z,64.70
2018-09-25T04:19:05.122Z,65.12
2018-09-25T04:21:38.765Z,65.38
2018-09-25T04:24:12.269Z,65.45
2018-09-25T04:26:45.977Z,65.46
2018-09-25T04:29:19.507Z,65.75
2018-09-25T04:31:52.981Z,65.73
2018-09-25T04:34:26.544Z,65.35
2018-09-25T04:37:00.162Z,65.18
2018-09-25T04:39:33.774Z,65.42
2018-09-25T04:42:07.245Z,65.44
2018-09-25T04:44:40.982Z,65.21
2018-09-25T04:47:14.488Z,65.45
2018-09-25T04:49:48.016Z,65.78
2018-09-25T04:52:22.576Z,65.82
2018-09-25T04:54:56.261Z,65.78
2018-09-25T04:57:29.954Z,65.86
2018-09-25T05:00:03.517Z,65.69
2018-09-25T05:02:37.185Z,65.96
2018-09-25T05:05:10.910Z,65.62
2018-09-25T05:07:44.561Z,65.76
2018-09-25T05:10:18.139Z,65.53
2018-09-25T05:12:51.649Z,65.52
2018-09-25T05:15:25.180Z,64.94
2018-09-25T05:17:58.916Z,65.23
2018-09-25T05:20:32.565Z,65.83
2018-09-25T05:23:06.262Z,65.00
2018-09-25T05:25:39.809Z,65.34
2018-09-25T05:28:13.469Z,64.79
2018-09-25T05:30:47.041Z,65.14
2018-09-25T05:33:20.615Z,65.50
2018-09-25T05:35:54.906Z,65.36
2018-09-25T05:38:28.496Z,64.56
2018-09-25T05:41:02.038Z,65.35
2018-09-25T05:43:35.645Z,65.42
2018-09-25T05:46:09.366Z,65.34
2018-09-25T05:48:43.071Z,65.75
2018-09-25T05:51:16.798Z,65.35
2018-09-25T05:53:50.289Z,65.76
2018-09-25T05:56:23.879Z,65.42
2018-09-25T05:58:57.523Z,65.17
2018-09-25T06:01:31.049Z,65.02
2018-09-25T06:04:04.471Z,64.72
2018-09-25T06:06:38.033Z,64.66
2018-09-25T06:09:13.230Z,64.75
2018-09-25T06:11:46.794Z,64.45
2018-09-25T06:14:20.461Z,64.78
2018-09-25T06:16:54.044Z,64.81
2018-09-25T06:19:27.593Z,64.71
2018-09-25T06:22:01.101Z,65.04
2018-09-25T06:24:34.750Z,64.59
2018-09-25T06:27:08.332Z,65.44
2018-09-25T06:29:41.773Z,65.27
2018-09-25T06:32:15.397Z,65.71
2018-09-25T06:34:48.856Z,65.58
2018-09-25T06:37:22.492Z,65.99
2018-09-25T06:39:55.977Z,66.08
2018-09-25T06:42:29.452Z,65.37
2018-09-25T06:45:03.026Z,65.93
2018-09-25T06:47:36.589Z,67.03
2018-09-25T06:50:10.081Z,67.69
2018-09-25T06:52:43.617Z,67.61
2018-09-25T06:55:17.461Z,67.65
2018-09-25T06:57:51.185Z,67.89
2018-09-25T07:00:24.716Z,67.82
2018-09-25T07:02:58.426Z,67.84
2018-09-25T07:05:31.977Z,68.06
2018-09-25T07:08:05.509Z,67.99
2018-09-25T07:10:39.126Z,68.66
2018-09-25T07:13:12.939Z,68.53
2018-09-25T07:15:46.454Z,69.13
2018-09-25T07:18:20.145Z,68.97
2018-09-25T07:20:53.838Z,68.41
2018-09-25T07:23:27.371Z,67.78
2018-09-25T07:26:00.945Z,68.66
2018-09-25T07:28:34.589Z,68.31
2018-09-25T07:31:08.242Z,68.63
2018-09-25T07:33:41.842Z,68.35
2018-09-25T07:36:15.518Z,68.35
2018-09-25T07:38:49.044Z,68.09
2018-09-25T07:41:22.593Z,68.38
2018-09-25T07:43:56.369Z,68.52
2018-09-25T07:46:29.933Z,68.33
2018-09-25T07:49:04.139Z,68.29
2018-09-25T07:51:38.697Z,68.09
2018-09-25T07:54:14.986Z,66.82
2018-09-25T07:56:51.135Z,66.88
2018-09-25T07:59:25.747Z,66.91
2018-09-25T08:02:00.013Z,67.32
2018-09-25T08:04:34.213Z,66.41
2018-09-25T08:07:08.486Z,66.51
2018-09-25T08:09:43.348Z,66.68
2018-09-25T08:12:17.414Z,67.26
2018-09-25T08:14:51.574Z,66.96
2018-09-25T08:17:25.546Z,66.26
2018-09-25T08:19:59.431Z,66.82
2018-09-25T08:22:34.263Z,67.37
2018-09-25T08:25:08.267Z,65.88
2018-09-25T08:27:42.348Z,66.43
2018-09-25T08:30:15.957Z,66.13
2018-09-25T08:32:49.391Z,65.71
2018-09-25T08:35:23.027Z,66.61
2018-09-25T08:37:56.612Z,65.66
2018-09-25T08:40:30.239Z,64.36
2018-09-25T08:43:03.645Z,65.62
2018-09-25T08:45:37.143Z,65.08
2018-09-25T08:48:10.853Z,64.84
2018-09-25T08:50:44.520Z,64.92
2018-09-25T08:53:18.186Z,64.23
2018-09-25T08:55:51.706Z,64.57
2018-09-25T08:58:25.394Z,63.91
2018-09-25T09:00:59.592Z,63.66
2018-09-25T09:03:33.654Z,64.04
2018-09-25T09:06:07.298Z,64.16
2018-09-25T09:08:40.949Z,63.92
2018-09-25T09:11:14.878Z,62.79
2018-09-25T09:13:48.482Z,63.28
2018-09-25T09:16:22.121Z,62.05
2018-09-25T09:18:56.109Z,62.19
2018-09-25T09:21:29.694Z,60.28
2018-09-25T09:24:03.293Z,60.52
2018-09-25T09:26:36.761Z,59.38
2018-09-25T09:29:10.430Z,60.43
2018-09-25T09:31:44.043Z,60.91
2018-09-25T09:34:17.870Z,58.99
2018-09-25T09:36:51.895Z,58.01
2018-09-25T09:39:25.906Z,57.53
2018-09-25T09:41:59.953Z,60.00
2018-09-25T09:44:33.837Z,59.43
2018-09-25T09:47:07.967Z,59.36
2018-09-25T09:49:42.292Z,58.84
2018-09-25T09:52:16.393Z,57.68
2018-09-25T09:54:50.388Z,56.62
2018-09-25T09:57:24.685Z,57.15
2018-09-25T09:59:58.805Z,59.65
2018-09-25T10:02:32.932Z,57.44
2018-09-25T10:05:06.667Z,56.41
2018-09-25T10:07:41.515Z,56.37
2018-09-25T10:10:15.140Z,54.72
2018-09-25T10:12:48.611Z,53.99
2018-09-25T10:15:22.327Z,54.34
2018-09-25T10:17:55.921Z,54.92
2018-09-25T10:20:29.422Z,54.38
2018-09-25T10:23:03.061Z,52.89
2018-09-25T10:25:36.779Z,55.88
2018-09-25T10:28:10.366Z,55.84
2018-09-25T10:30:43.980Z,57.43
2018-09-25T10:33:17.652Z,58.84
2018-09-25T10:35:51.205Z,55.34
2018-09-25T10:38:24.749Z,54.79
2018-09-25T10:40:58.472Z,51.58
2018-09-25T10:43:32.133Z,52.25
2018-09-25T10:46:05.903Z,52.92
2018-09-25T10:48:46.213Z,52.36
2018-09-25T10:51:19.849Z,50.29
2018-09-25T10:53:53.371Z,51.69
2018-09-25T10:56:27.029Z,52.43
2018-09-25T10:59:00.701Z,52.04
2018-09-25T11:01:34.233Z,50.58
2018-09-25T11:04:07.762Z,50.32
2018-09-25T11:06:41.515Z,50.15
2018-09-25T11:09:15.214Z,51.45
2018-09-25T11:11:48.940Z,50.01
2018-09-25T11:14:22.621Z,50.00
2018-09-25T11:16:56.101Z,49.33
2018-09-25T11:19:29.712Z,49.13
2018-09-25T11:22:03.237Z,49.37
2018-09-25T11:24:36.720Z,50.04
2018-09-25T11:27:10.316Z,48.06
2018-09-25T11:29:44.008Z,47.83
2018-09-25T11:32:17.721Z,49.80
2018-09-25T11:34:51.337Z,49.40
2018-09-25T11:37:24.854Z,49.71
2018-09-25T11:39:59.301Z,48.96
2018-09-25T11:42:32.933Z,49.43
2018-09-25T11:45:06.601Z,49.38
2018-09-25T11:47:47.284Z,50.89
2018-09-25T11:50:20.767Z,48.38
2018-09-25T11:52:54.391Z,49.12
2018-09-25T11:55:28.089Z,49.59
2018-09-25T11:58:01.797Z,48.94
2018-09-25T12:00:35.636Z,48.05
2018-09-25T12:03:09.286Z,46.69
2018-09-25T12:05:42.892Z,47.59
2018-09-25T12:08:16.666Z,48.43
2018-09-25T12:10:50.341Z,47.81
2018-09-25T12:13:23.868Z,45.25
2018-09-25T12:15:57.572Z,46.42
2018-09-25T12:18:31.181Z,42.95
2018-09-25T12:21:04.721Z,41.23
2018-09-25T12:23:39.014Z,42.69
2018-09-25T12:26:12.714Z,45.25
2018-09-25T12:28:46.285Z,43.81
2018-09-25T12:31:19.929Z,41.39
2018-09-25T12:33:53.633Z,42.17
2018-09-25T12:36:27.333Z,43.85
2018-09-25T12:39:00.905Z,41.67
2018-09-25T12:41:34.564Z,41.22
2018-09-25T12:44:08.208Z,41.12
2018-09-25T12:46:41.948Z,39.12
2018-09-25T12:49:15.598Z,41.37
2018-09-25T12:51:49.202Z,41.94
2018-09-25T12:54:22.770Z,41.87
2018-09-25T12:56:56.599Z,42.01
2018-09-25T12:59:30.105Z,43.22
2018-09-25T13:02:03.749Z,41.63
2018-09-25T13:04:37.407Z,43.05
2018-09-25T13:07:11.049Z,42.44
2018-09-25T13:09:44.818Z,42.34
2018-09-25T13:12:18.469Z,42.30
2018-09-25T13:14:52.216Z,43.26
2018-09-25T13:17:26.664Z,42.13
2018-09-25T13:20:00.178Z,40.35
2018-09-25T13:22:33.861Z,41.49
2018-09-25T13:25:07.417Z,43.04
2018-09-25T13:27:41.029Z,40.83
2018-09-25T13:30:14.746Z,42.95
2018-09-25T13:32:48.229Z,41.36
2018-09-25T13:35:21.729Z,42.00
2018-09-25T13:37:55.385Z,43.39
2018-09-25T13:40:29.130Z,42.28
2018-09-25T13:43:02.720Z,42.24
2018-09-25T13:45:36.188Z,41.78
2018-09-25T13:48:09.825Z,40.54
2018-09-25T13:50:43.449Z,40.37
2018-09-25T13:53:16.960Z,40.59
2018-09-25T13:55:50.529Z,42.57
2018-09-25T13:58:24.216Z,42.14
2018-09-25T14:00:57.898Z,43.32
2018-09-25T14:03:31.573Z,42.30
2018-09-25T14:06:05.181Z,41.57
2018-09-25T14:08:38.886Z,43.40
2018-09-25T14:11:12.360Z,43.52
2018-09-25T14:13:46.092Z,42.30
2018-09-25T14:16:19.609Z,42.10
2018-09-25T14:18:53.281Z,42.41
2018-09-25T14:21:26.804Z,43.64
2018-09-25T14:24:00.385Z,46.59
2018-09-25T14:26:33.956Z,44.71
2018-09-25T14:29:07.665Z,44.02
2018-09-25T14:31:41.341Z,44.24
2018-09-25T14:34:14.844Z,43.88
2018-09-25T14:36:48.441Z,42.77
2018-09-25T14:39:22.060Z,42.04
2018-09-25T14:41:55.761Z,43.36
2018-09-25T14:44:29.364Z,44.41
2018-09-25T14:47:03.435Z,43.89
2018-09-25T14:49:37.177Z,43.79
2018-09-25T14:52:10.818Z,43.93
2018-09-25T14:54:44.604Z,43.65
2018-09-25T14:57:18.417Z,44.70
2018-09-25T14:59:52.030Z,43.24
2018-09-25T15:02:25.553Z,44.38
2018-09-25T15:04:59.186Z,43.82
2018-09-25T15:07:32.898Z,43.96
2018-09-25T15:10:06.441Z,43.87
2018-09-25T15:12:40.089Z,43.00
2018-09-25T15:15:13.717Z,43.51
2018-09-25T15:17:47.534Z,42.89
2018-09-25T15:20:21.210Z,40.86
2018-09-25T15:22:54.688Z,41.67
2018-09-25T15:25:28.232Z,40.76
2018-09-25T15:28:01.990Z,41.07
2018-09-25T15:30:35.665Z,40.87
2018-09-25T15:33:09.562Z,41.57
2018-09-25T15:35:43.330Z,41.46
2018-09-25T15:38:16.874Z,42.17
2018-09-25T15:40:50.546Z,42.64
2018-09-25T15:43:24.194Z,42.10
2018-09-25T15:45:57.853Z,44.05
2018-09-25T15:48:31.505Z,43.09
2018-09-25T15:51:05.164Z,43.32
2018-09-25T15:53:38.781Z,42.35
2018-09-25T15:56:12.249Z,43.57
2018-09-25T15:58:45.925Z,43.36
2018-09-25T16:01:19.554Z,42.64
2018-09-25T16:03:53.185Z,43.57
2018-09-25T16:06:26.726Z,43.72
2018-09-25T16:09:00.354Z,43.86
2018-09-25T16:11:33.944Z,44.09
2018-09-25T16:14:07.702Z,44.16
2018-09-25T16:16:41.161Z,45.18
2018-09-25T16:19:14.834Z,44.32
2018-09-25T16:21:48.480Z,44.83
2018-09-25T16:24:22.070Z,45.12
2018-09-25T16:26:55.660Z,45.91
2018-09-25T16:29:29.270Z,46.61
2018-09-25T16:32:03.121Z,47.29
2018-09-25T16:34:36.765Z,47.65
2018-09-25T16:37:10.601Z,47.82
2018-09-25T16:39:44.134Z,48.36
2018-09-25T16:42:18.076Z,48.23
2018-09-25T16:44:51.685Z,48.32
2018-09-25T16:47:25.356Z,48.36
2018-09-25T16:49:58.874Z,49.50
2018-09-25T16:52:32.397Z,49.49
2018-09-25T16:55:06.121Z,49.59
2018-09-25T16:57:39.815Z,50.37
2018-09-25T17:00:13.634Z,50.55
2018-09-25T17:02:47.141Z,50.96
2018-09-25T17:05:20.693Z,51.45
2018-09-25T17:07:54.187Z,52.79
2018-09-25T17:10:27.950Z,52.25
2018-09-25T17:13:02.005Z,53.11
2018-09-25T17:15:35.754Z,52.34
2018-09-25T17:18:09.383Z,52.12
2018-09-25T17:20:42.973Z,53.32
2018-09-25T17:23:16.674Z,53.01
2018-09-25T17:25:50.433Z,52.83
2018-09-25T17:28:23.997Z,53.58
2018-09-25T17:30:57.626Z,53.95
2018-09-25T17:33:31.181Z,53.94
2018-09-25T17:36:04.784Z,54.60
2018-09-25T17:38:38.658Z,54.74
2018-09-25T17:41:12.461Z,55.18
2018-09-25T17:43:46.062Z,54.89
2018-09-25T17:46:19.733Z,54.68
2018-09-25T17:48:53.432Z,55.03
2018-09-25T17:51:27.062Z,55.02
2018-09-25T17:54:01.048Z,55.29
2018-09-25T17:56:34.737Z,54.86
2018-09-25T17:59:08.285Z,55.21
2018-09-25T18:01:41.741Z,55.86
2018-09-25T18:04:15.282Z,55.37
2018-09-25T18:06:48.833Z,55.52
2018-09-25T18:09:22.446Z,55.77
2018-09-25T18:11:56.129Z,55.57
2018-09-25T18:14:29.700Z,56.05
2018-09-25T18:17:03.438Z,56.25
2018-09-25T18:19:36.905Z,55.96
2018-09-25T18:22:10.543Z,60.02
2018-09-25T18:24:44.172Z,55.29
2018-09-25T18:27:17.677Z,54.95
2018-09-25T18:29:51.246Z,55.28
2018-09-25T18:32:24.949Z,55.00
2018-09-25T18:34:58.430Z,55.71
2018-09-25T18:37:31.965Z,55.51
2018-09-25T18:40:05.487Z,55.38
2018-09-25T18:42:39.021Z,55.95
2018-09-25T18:45:12.749Z,56.16
2018-09-25T18:47:46.277Z,56.13
2018-09-25T18:50:19.769Z,55.38
2018-09-25T18:52:53.525Z,55.56
2018-09-25T18:55:27.124Z,56.00
2018-09-25T18:58:00.810Z,56.08
2018-09-25T19:00:34.600Z,56.05
2018-09-25T19:03:08.152Z,56.40
2018-09-25T19:05:41.800Z,56.23
2018-09-25T19:08:15.213Z,56.21
2018-09-25T19:10:48.737Z,56.06
2018-09-25T19:13:22.637Z,56.32
2018-09-25T19:15:56.189Z,56.63
2018-09-25T19:18:29.838Z,56.72
2018-09-25T19:21:03.417Z,56.37
2018-09-25T19:23:37.084Z,56.88
2018-09-25T19:26:10.713Z,56.65
2018-09-25T19:28:44.469Z,57.04
2018-09-25T19:31:18.316Z,57.11
2018-09-25T19:33:51.844Z,57.47
2018-09-25T19:36:25.486Z,57.27
2018-09-25T19:38:59.101Z,57.43
2018-09-25T19:41:33.031Z,57.48
2018-09-25T19:44:06.606Z,57.78
2018-09-25T19:46:40.402Z,57.61
2018-09-25T19:49:13.966Z,57.68
2018-09-25T19:51:47.554Z,58.02
2018-09-25T19:54:21.444Z,57.76
2018-09-25T19:56:55.114Z,58.03
2018-09-25T19:59:28.623Z,58.22
2018-09-25T20:02:02.511Z,58.45
2018-09-25T20:04:36.277Z,58.35
2018-09-25T20:07:10.345Z,58.57
2018-09-25T20:09:44.032Z,58.92
2018-09-25T20:12:17.674Z,59.11
2018-09-25T20:14:51.366Z,59.15
2018-09-25T20:17:25.035Z,58.63
2018-09-25T20:19:58.951Z,58.90
2018-09-25T20:22:32.553Z,58.91
2018-09-25T20:25:06.273Z,58.81
2018-09-25T20:27:40.110Z,58.55
2018-09-25T20:30:13.777Z,58.75
2018-09-25T20:32:53.293Z,58.45
2018-09-25T20:35:27.141Z,58.71
2018-09-25T20:38:00.677Z,58.72
2018-09-25T20:40:34.378Z,58.40
2018-09-25T20:43:07.953Z,58.71
2018-09-25T20:45:41.604Z,58.60
2018-09-25T20:48:15.343Z,58.83
2018-09-25T20:50:48.897Z,58.13
2018-09-25T20:53:22.353Z,58.55
2018-09-25T20:55:56.041Z,58.79
2018-09-25T20:58:29.488Z,58.66
2018-09-25T21:01:03.109Z,58.44
2018-09-25T21:03:36.734Z,58.50
2018-09-25T21:06:10.285Z,58.44
2018-09-25T21:08:43.884Z,58.66
2018-09-25T21:11:17.535Z,58.44
2018-09-25T21:13:51.209Z,58.42
2018-09-25T21:16:24.805Z,58.36
2018-09-25T21:18:58.406Z,58.53
2018-09-25T21:21:32.197Z,58.39
2018-09-25T21:24:05.679Z,58.44
2018-09-25T21:26:39.179Z,58.54
2018-09-25T21:29:12.792Z,58.46
2018-09-25T21:31:46.314Z,58.89
2018-09-25T21:34:19.842Z,58.77
2018-09-25T21:36:53.329Z,58.64
2018-09-25T21:39:26.834Z,58.60
2018-09-25T21:42:00.331Z,58.52
2018-09-25T21:44:33.907Z,58.66
2018-09-25T21:47:07.433Z,58.73
2018-09-25T21:49:40.901Z,58.59
2018-09-25T21:52:14.374Z,58.20
2018-09-25T21:54:47.889Z,58.93
2018-09-25T21:57:21.747Z,58.91
2018-09-25T21:59:55.148Z,58.55
2018-09-25T22:02:28.673Z,58.82
2018-09-25T22:05:02.265Z,59.11
2018-09-25T22:07:35.921Z,59.19
2018-09-25T22:10:09.570Z,59.03
2018-09-25T22:12:43.180Z,59.41
2018-09-25T22:15:16.789Z,59.02
2018-09-25T22:17:50.530Z,58.75
2018-09-25T22:20:24.309Z,58.65
2018-09-25T22:22:58.025Z,59.01
2018-09-25T22:25:31.570Z,59.55
2018-09-25T22:28:05.130Z,59.44
2018-09-25T22:30:38.773Z,59.23
2018-09-25T22:33:12.514Z,59.12
2018-09-25T22:35:46.236Z,58.74
2018-09-25T22:38:19.969Z,58.95
2018-09-25T22:40:53.481Z,59.07
2018-09-25T22:43:26.969Z,59.31
2018-09-25T22:46:00.493Z,59.46
2018-09-25T22:51:25.204Z,59.31
2018-09-25T22:53:58.681Z,59.00
2018-09-25T22:56:32.158Z,59.11
2018-09-25T22:59:05.709Z,58.71
2018-09-25T23:01:39.459Z,58.57
2018-09-25T23:04:13.046Z,58.90
2018-09-25T23:06:46.577Z,59.08
2018-09-25T23:09:20.161Z,59.13
2018-09-25T23:11:53.697Z,58.93
2018-09-25T23:14:27.178Z,59.48
2018-09-25T23:17:00.941Z,59.18
2018-09-25T23:19:34.526Z,59.30
2018-09-25T23:22:08.133Z,59.36
2018-09-25T23:24:41.635Z,59.31
2018-09-25T23:27:15.260Z,58.77
2018-09-25T23:29:48.905Z,59.16
2018-09-25T23:32:22.594Z,59.02
2018-09-25T23:34:56.065Z,59.04
2018-09-25T23:37:29.592Z,58.57
2018-09-25T23:40:03.246Z,59.42
2018-09-25T23:42:36.769Z,59.33
2018-09-25T23:46:19.236Z,58.81
2018-09-25T23:48:57.758Z,59.34
2018-09-25T23:51:30.636Z,58.99
2018-09-25T23:54:05.538Z,59.89
2018-09-25T23:56:39.325Z,59.69
